createdAt,value
2019-03-23T00:00:22.782Z,82.50
2019-03-23T00:01:22.751Z,83.80
2019-03-23T00:02:22.722Z,74.50
2019-03-23T00:03:22.693Z,78.50
2019-03-23T00:04:22.662Z,70.40
2019-03-23T00:05:22.632Z,62.80
2019-03-23T00:06:30.453Z,60.10
2019-03-23T00:07:22.576Z,60.00
2019-03-23T00:08:22.545Z,58.70
2019-03-23T00:09:22.517Z,59.60
2019-03-23T00:10:22.484Z,69.40
2019-03-23T00:11:22.455Z,66.30
2019-03-23T00:12:22.426Z,71.70
2019-03-23T00:13:22.395Z,68.10
2019-03-23T00:14:22.366Z,61.30
2019-03-23T00:15:22.337Z,63.60
2019-03-23T00:16:22.306Z,75.80
2019-03-23T00:17:22.278Z,70.50
2019-03-23T00:18:22.247Z,82.30
2019-03-23T00:19:22.219Z,127.30
2019-03-23T00:20:22.190Z,127.30
2019-03-23T00:21:22.158Z,128.60
2019-03-23T00:22:22.127Z,125.20
2019-03-23T00:23:22.101Z,132.30
2019-03-23T00:24:22.068Z,121.50
2019-03-23T00:25:22.039Z,85.60
2019-03-23T00:26:22.008Z,104.90
2019-03-23T00:27:21.980Z,128.40
2019-03-23T00:28:21.950Z,80.20
2019-03-23T00:29:21.919Z,117.20
2019-03-23T00:30:21.889Z,113.20
2019-03-23T00:31:21.862Z,133.90
2019-03-23T00:32:21.830Z,133.80
2019-03-23T00:33:21.799Z,113.20
2019-03-23T00:34:21.769Z,107.00
2019-03-23T00:35:21.742Z,121.50
2019-03-23T00:36:21.710Z,129.60
2019-03-23T00:37:21.681Z,104.30
2019-03-23T00:38:21.650Z,129.70
2019-03-23T00:39:21.618Z,90.00
2019-03-23T00:40:21.590Z,108.30
2019-03-23T00:41:21.560Z,126.40
2019-03-23T00:42:21.530Z,111.20
2019-03-23T00:43:21.501Z,121.50
2019-03-23T00:44:21.470Z,98.60
2019-03-23T00:45:21.441Z,86.00
2019-03-23T00:46:21.409Z,65.10
2019-03-23T00:47:21.381Z,63.00
2019-03-23T00:48:21.354Z,60.30
2019-03-23T00:49:21.319Z,60.90
2019-03-23T00:50:21.289Z,56.60
2019-03-23T00:51:21.261Z,63.90
2019-03-23T00:52:21.230Z,59.40
2019-03-23T00:53:21.200Z,63.10
2019-03-23T00:54:21.169Z,58.50
2019-03-23T00:55:21.141Z,54.20
2019-03-23T00:56:21.110Z,54.10
2019-03-23T00:57:21.082Z,56.10
2019-03-23T00:58:21.049Z,55.10
2019-03-23T00:59:21.019Z,55.00
2019-03-23T01:00:20.990Z,53.60
2019-03-23T01:01:20.958Z,63.10
2019-03-23T01:02:20.928Z,65.10
2019-03-23T01:03:20.898Z,60.80
2019-03-23T01:04:20.870Z,69.30
2019-03-23T01:05:20.838Z,61.80
2019-03-23T01:06:20.808Z,63.90
2019-03-23T01:07:20.778Z,61.50
2019-03-23T01:08:20.748Z,59.60
2019-03-23T01:09:20.717Z,60.20
2019-03-23T01:10:20.687Z,60.40
2019-03-23T01:11:20.656Z,106.30
2019-03-23T01:12:20.628Z,65.80
2019-03-23T01:13:20.597Z,72.50
2019-03-23T01:14:20.566Z,83.90
2019-03-23T01:15:20.536Z,71.70
2019-03-23T01:16:20.506Z,76.00
2019-03-23T01:17:20.477Z,68.50
2019-03-23T01:18:20.445Z,63.20
2019-03-23T01:19:20.416Z,58.90
2019-03-23T01:20:20.384Z,61.70
2019-03-23T01:21:20.354Z,56.70
2019-03-23T01:22:20.323Z,60.00
2019-03-23T01:23:20.294Z,62.10
2019-03-23T01:24:20.265Z,64.00
2019-03-23T01:25:20.945Z,97.10
2019-03-23T01:26:20.203Z,113.30
2019-03-23T01:27:20.173Z,136.50
2019-03-23T01:28:20.143Z,124.70
2019-03-23T01:29:20.111Z,105.40
2019-03-23T01:30:20.081Z,129.00
2019-03-23T01:31:20.051Z,96.10
2019-03-23T01:32:20.023Z,117.90
2019-03-23T01:33:19.991Z,126.40
2019-03-23T01:34:19.962Z,71.60
2019-03-23T01:35:19.929Z,87.10
2019-03-23T01:36:19.900Z,84.90
2019-03-23T01:37:19.873Z,82.20
2019-03-23T01:38:19.837Z,76.80
2019-03-23T01:39:19.808Z,77.20
2019-03-23T01:40:19.778Z,81.40
2019-03-23T01:41:19.750Z,92.50
2019-03-23T01:42:19.718Z,88.40
2019-03-23T01:43:19.688Z,111.00
2019-03-23T01:44:19.658Z,90.20
2019-03-23T01:45:19.633Z,76.80
2019-03-23T01:46:19.596Z,89.60
2019-03-23T01:47:19.565Z,89.10
2019-03-23T01:48:19.539Z,74.30
2019-03-23T01:49:19.505Z,72.30
2019-03-23T01:50:19.474Z,92.50
2019-03-23T01:51:19.445Z,96.40
2019-03-23T01:52:19.415Z,82.40
2019-03-23T01:53:19.386Z,109.50
2019-03-23T01:54:19.352Z,96.40
2019-03-23T01:55:19.322Z,71.90
2019-03-23T01:56:19.295Z,76.40
2019-03-23T01:57:19.267Z,71.40
2019-03-23T01:58:19.232Z,71.80
2019-03-23T01:59:19.200Z,68.30
2019-03-23T02:00:19.172Z,72.80
2019-03-23T02:01:19.141Z,99.60
2019-03-23T02:02:19.110Z,87.10
2019-03-23T02:03:19.080Z,124.80
2019-03-23T02:04:19.048Z,113.60
2019-03-23T02:05:19.019Z,96.50
2019-03-23T02:06:18.988Z,122.10
2019-03-23T02:07:18.958Z,97.80
2019-03-23T02:08:18.927Z,75.20
2019-03-23T02:09:18.897Z,100.00
2019-03-23T02:10:18.867Z,87.90
2019-03-23T02:11:18.837Z,88.90
2019-03-23T02:12:18.807Z,83.50
2019-03-23T02:13:18.777Z,94.50
2019-03-23T02:14:18.745Z,103.50
2019-03-23T02:15:18.714Z,84.20
2019-03-23T02:16:18.685Z,95.30
2019-03-23T02:17:18.655Z,121.90
2019-03-23T02:18:18.629Z,113.50
2019-03-23T02:19:18.601Z,106.00
2019-03-23T02:20:18.562Z,110.10
2019-03-23T02:21:18.532Z,133.20
2019-03-23T02:22:18.506Z,96.60
2019-03-23T02:23:18.471Z,91.60
2019-03-23T02:24:18.442Z,92.80
2019-03-23T02:25:18.410Z,95.10
2019-03-23T02:26:18.379Z,89.70
2019-03-23T02:27:18.351Z,84.40
2019-03-23T02:28:18.327Z,96.00
2019-03-23T02:29:18.289Z,103.50
2019-03-23T02:30:18.262Z,112.80
2019-03-23T02:31:18.229Z,105.30
2019-03-23T02:32:18.198Z,94.70
2019-03-23T02:33:18.169Z,120.60
2019-03-23T02:34:18.138Z,102.90
2019-03-23T02:35:18.114Z,124.90
2019-03-23T02:36:18.077Z,122.60
2019-03-23T02:37:27.691Z,143.10
2019-03-23T02:38:18.017Z,145.40
2019-03-23T02:39:18.005Z,148.00
2019-03-23T02:40:17.960Z,143.60
2019-03-23T02:41:17.936Z,149.00
2019-03-23T02:42:17.892Z,161.30
2019-03-23T02:43:17.864Z,156.00
2019-03-23T02:44:17.837Z,160.30
2019-03-23T02:45:17.806Z,148.20
2019-03-23T02:46:17.778Z,143.80
2019-03-23T02:47:17.743Z,120.00
2019-03-23T02:48:17.721Z,121.20
2019-03-23T02:49:17.684Z,126.10
2019-03-23T02:50:17.653Z,103.00
2019-03-23T02:51:17.621Z,96.00
2019-03-23T02:52:17.591Z,101.20
2019-03-23T02:53:17.560Z,114.50
2019-03-23T02:54:17.530Z,142.30
2019-03-23T02:55:17.499Z,110.90
2019-03-23T02:56:17.470Z,106.40
2019-03-23T02:57:17.441Z,106.50
2019-03-23T02:58:17.407Z,97.60
2019-03-23T02:59:17.378Z,89.60
2019-03-23T03:00:17.348Z,92.60
2019-03-23T03:01:17.327Z,106.00
2019-03-23T03:02:17.288Z,133.20
2019-03-23T03:03:17.257Z,132.00
2019-03-23T03:04:17.237Z,132.20
2019-03-23T03:05:17.198Z,113.80
2019-03-23T03:06:17.166Z,124.40
2019-03-23T03:07:17.138Z,126.40
2019-03-23T03:08:17.107Z,121.50
2019-03-23T03:09:17.076Z,125.30
2019-03-23T03:10:17.045Z,124.10
2019-03-23T03:11:17.014Z,119.80
2019-03-23T03:12:16.985Z,99.20
2019-03-23T03:13:16.955Z,104.30
2019-03-23T03:14:16.922Z,114.80
2019-03-23T03:15:16.893Z,111.20
2019-03-23T03:16:16.863Z,102.00
2019-03-23T03:17:16.835Z,70.70
2019-03-23T03:18:16.805Z,121.00
2019-03-23T03:19:16.770Z,78.10
2019-03-23T03:20:16.740Z,85.10
2019-03-23T03:21:16.717Z,123.80
2019-03-23T03:22:16.693Z,101.40
2019-03-23T03:23:16.655Z,103.10
2019-03-23T03:24:16.620Z,70.70
2019-03-23T03:25:16.589Z,97.50
2019-03-23T03:26:16.569Z,103.70
2019-03-23T03:27:16.546Z,86.80
2019-03-23T03:28:16.497Z,90.40
2019-03-23T03:29:16.470Z,83.10
2019-03-23T03:30:16.461Z,108.40
2019-03-23T03:31:16.407Z,85.00
2019-03-23T03:32:16.377Z,98.40
2019-03-23T03:33:16.353Z,87.20
2019-03-23T03:34:16.315Z,101.80
2019-03-23T03:35:16.286Z,69.90
2019-03-23T03:36:16.254Z,98.20
2019-03-23T03:37:16.225Z,96.70
2019-03-23T03:38:16.195Z,83.90
2019-03-23T03:39:16.163Z,116.70
2019-03-23T03:40:16.137Z,82.90
2019-03-23T03:41:16.105Z,132.50
2019-03-23T03:42:16.077Z,97.40
2019-03-23T03:43:16.043Z,89.20
2019-03-23T03:44:16.013Z,99.70
2019-03-23T03:45:15.984Z,103.30
2019-03-23T03:46:15.956Z,83.60
2019-03-23T03:47:15.921Z,72.60
2019-03-23T03:48:15.893Z,67.10
2019-03-23T03:49:15.865Z,79.30
2019-03-23T03:50:15.831Z,81.00
2019-03-23T03:51:15.821Z,98.50
2019-03-23T03:52:15.770Z,118.90
2019-03-23T03:53:15.747Z,88.20
2019-03-23T03:54:15.712Z,116.80
2019-03-23T03:55:15.678Z,108.40
2019-03-23T03:56:15.649Z,78.30
2019-03-23T03:57:15.793Z,131.70
2019-03-23T03:58:15.590Z,106.70
2019-03-23T03:59:15.557Z,132.30
2019-03-23T04:00:15.527Z,147.80
2019-03-23T04:01:15.500Z,148.90
2019-03-23T04:02:15.467Z,150.30
2019-03-23T04:03:15.461Z,147.60
2019-03-23T04:04:15.424Z,140.60
2019-03-23T04:05:15.401Z,139.30
2019-03-23T04:06:15.349Z,150.90
2019-03-23T04:07:15.316Z,110.40
2019-03-23T04:08:15.285Z,96.80
2019-03-23T04:09:15.277Z,90.50
2019-03-23T04:10:15.227Z,96.00
2019-03-23T04:11:15.197Z,139.10
2019-03-23T04:12:15.170Z,137.20
2019-03-23T04:13:15.135Z,142.60
2019-03-23T04:14:15.106Z,144.10
2019-03-23T04:15:15.075Z,106.90
2019-03-23T04:16:15.046Z,100.40
2019-03-23T04:17:15.016Z,93.30
2019-03-23T04:18:14.998Z,89.60
2019-03-23T04:19:14.956Z,149.30
2019-03-23T04:20:14.973Z,125.00
2019-03-23T04:21:14.893Z,144.90
2019-03-23T04:22:14.863Z,82.50
2019-03-23T04:23:14.836Z,124.80
2019-03-23T04:24:14.805Z,94.10
2019-03-23T04:25:14.775Z,107.50
2019-03-23T04:26:14.745Z,129.30
2019-03-23T04:27:14.716Z,112.70
2019-03-23T04:28:14.684Z,109.40
2019-03-23T04:29:14.655Z,100.80
2019-03-23T04:30:14.629Z,114.50
2019-03-23T04:31:14.592Z,104.50
2019-03-23T04:32:14.561Z,102.10
2019-03-23T04:33:14.538Z,102.40
2019-03-23T04:34:14.502Z,100.40
2019-03-23T04:35:14.471Z,93.50
2019-03-23T04:36:14.440Z,85.90
2019-03-23T04:37:14.412Z,91.10
2019-03-23T04:38:22.728Z,120.80
2019-03-23T04:39:14.349Z,128.40
2019-03-23T04:40:14.323Z,98.10
2019-03-23T04:41:14.290Z,98.40
2019-03-23T04:42:14.259Z,79.80
2019-03-23T04:43:14.228Z,86.20
2019-03-23T04:44:14.198Z,78.70
2019-03-23T04:45:14.168Z,111.30
2019-03-23T04:46:14.137Z,86.10
2019-03-23T04:47:14.107Z,91.20
2019-03-23T04:48:14.077Z,77.60
2019-03-23T04:49:14.047Z,89.70
2019-03-23T04:50:14.017Z,111.10
2019-03-23T04:51:13.987Z,132.50
2019-03-23T04:52:13.956Z,122.20
2019-03-23T04:53:13.927Z,89.40
2019-03-23T04:54:13.894Z,98.40
2019-03-23T04:55:13.864Z,106.30
2019-03-23T04:56:13.836Z,100.90
2019-03-23T04:57:13.805Z,87.40
2019-03-23T04:58:13.811Z,92.10
2019-03-23T04:59:13.746Z,98.50
2019-03-23T05:00:13.713Z,105.00
2019-03-23T05:01:13.683Z,106.90
2019-03-23T05:02:13.652Z,100.90
2019-03-23T05:03:13.622Z,102.40
2019-03-23T05:04:13.591Z,104.20
2019-03-23T05:05:13.562Z,92.40
2019-03-23T05:06:13.531Z,94.50
2019-03-23T05:07:13.499Z,106.90
2019-03-23T05:08:13.468Z,84.50
2019-03-23T05:09:13.438Z,99.30
2019-03-23T05:10:13.407Z,85.40
2019-03-23T05:11:13.379Z,83.00
2019-03-23T05:12:13.348Z,90.80
2019-03-23T05:13:13.318Z,105.60
2019-03-23T05:14:13.284Z,99.20
2019-03-23T05:15:13.257Z,95.10
2019-03-23T05:16:13.225Z,113.30
2019-03-23T05:17:13.196Z,117.30
2019-03-23T05:18:13.163Z,111.80
2019-03-23T05:19:13.135Z,101.30
2019-03-23T05:20:13.104Z,98.50
2019-03-23T05:21:13.073Z,113.50
2019-03-23T05:22:13.043Z,121.00
2019-03-23T05:23:13.013Z,117.90
2019-03-23T05:24:12.983Z,104.00
2019-03-23T05:25:12.952Z,93.80
2019-03-23T05:26:12.925Z,83.80
2019-03-23T05:27:12.889Z,77.20
2019-03-23T05:28:12.861Z,58.80
2019-03-23T05:29:12.829Z,82.40
2019-03-23T05:30:12.799Z,78.40
2019-03-23T05:31:12.772Z,87.40
2019-03-23T05:32:12.737Z,81.10
2019-03-23T05:33:12.708Z,99.00
2019-03-23T05:34:12.676Z,91.00
2019-03-23T05:35:12.648Z,77.30
2019-03-23T05:36:12.617Z,99.10
2019-03-23T05:37:12.585Z,86.80
2019-03-23T05:38:12.555Z,86.20
2019-03-23T05:39:12.526Z,92.90
2019-03-23T05:40:12.499Z,96.80
2019-03-23T05:41:12.463Z,117.70
2019-03-23T05:42:12.433Z,107.20
2019-03-23T05:43:12.404Z,125.50
2019-03-23T05:44:12.379Z,125.90
2019-03-23T05:45:12.343Z,112.00
2019-03-23T05:46:12.313Z,101.30
2019-03-23T05:47:12.282Z,93.90
2019-03-23T05:48:12.251Z,109.10
2019-03-23T05:49:12.222Z,96.50
2019-03-23T05:50:12.195Z,98.40
2019-03-23T05:51:12.162Z,93.10
2019-03-23T05:52:12.130Z,99.10
2019-03-23T05:53:12.102Z,118.50
2019-03-23T05:54:12.070Z,103.70
2019-03-23T05:55:12.040Z,108.90
2019-03-23T05:56:12.014Z,86.80
2019-03-23T05:57:11.981Z,95.10
2019-03-23T05:58:11.949Z,98.10
2019-03-23T05:59:11.920Z,93.00
2019-03-23T06:00:11.889Z,110.90
2019-03-23T06:01:11.862Z,93.70
2019-03-23T06:02:11.829Z,90.20
2019-03-23T06:03:11.800Z,88.70
2019-03-23T06:04:11.771Z,121.40
2019-03-23T06:05:11.742Z,121.30
2019-03-23T06:06:11.709Z,108.80
2019-03-23T06:07:11.680Z,92.10
2019-03-23T06:08:11.648Z,73.50
2019-03-23T06:09:11.619Z,120.70
2019-03-23T06:10:11.592Z,104.80
2019-03-23T06:11:11.560Z,96.00
2019-03-23T06:12:11.530Z,108.10
2019-03-23T06:13:11.500Z,103.90
2019-03-23T06:14:11.471Z,95.80
2019-03-23T06:15:11.441Z,87.40
2019-03-23T06:16:11.409Z,96.80
2019-03-23T06:17:11.381Z,79.90
2019-03-23T06:18:11.349Z,102.40
2019-03-23T06:19:11.320Z,108.40
2019-03-23T06:20:11.292Z,107.80
2019-03-23T06:21:11.262Z,91.80
2019-03-23T06:22:11.231Z,85.50
2019-03-23T06:23:11.203Z,79.00
2019-03-23T06:24:11.173Z,112.80
2019-03-23T06:25:11.147Z,104.40
2019-03-23T06:26:11.114Z,109.90
2019-03-23T06:27:11.085Z,114.50
2019-03-23T06:28:11.056Z,78.80
2019-03-23T06:29:11.027Z,83.80
2019-03-23T06:30:10.996Z,77.40
2019-03-23T06:31:10.968Z,68.60
2019-03-23T06:32:10.939Z,83.20
2019-03-23T06:33:10.916Z,82.20
2019-03-23T06:34:10.882Z,70.70
2019-03-23T06:35:10.852Z,68.30
2019-03-23T06:36:10.823Z,70.50
2019-03-23T06:37:10.793Z,71.80
2019-03-23T06:38:10.764Z,75.80
2019-03-23T06:39:10.734Z,75.40
2019-03-23T06:40:10.706Z,81.20
2019-03-23T06:41:10.677Z,87.00
2019-03-23T06:42:10.650Z,81.00
2019-03-23T06:43:10.619Z,74.80
2019-03-23T06:44:10.592Z,72.70
2019-03-23T06:45:10.563Z,71.80
2019-03-23T06:46:10.533Z,71.80
2019-03-23T06:47:10.504Z,71.60
2019-03-23T06:48:10.476Z,66.50
2019-03-23T06:49:10.448Z,70.40
2019-03-23T06:50:10.418Z,71.20
2019-03-23T06:51:10.392Z,82.20
2019-03-23T06:52:10.362Z,78.90
2019-03-23T06:53:10.334Z,71.80
2019-03-23T06:54:10.304Z,74.00
2019-03-23T06:55:10.277Z,78.90
2019-03-23T06:56:10.248Z,93.20
2019-03-23T06:57:10.219Z,119.00
2019-03-23T06:58:10.190Z,101.80
2019-03-23T06:59:10.164Z,129.00
2019-03-23T07:00:10.135Z,111.10
2019-03-23T07:01:10.106Z,100.30
2019-03-23T07:02:10.077Z,114.70
2019-03-23T07:03:10.050Z,105.20
2019-03-23T07:04:10.022Z,109.00
2019-03-23T07:05:09.995Z,99.20
2019-03-23T07:06:09.966Z,114.80
2019-03-23T07:07:09.938Z,101.60
2019-03-23T07:08:09.909Z,111.70
2019-03-23T07:09:16.113Z,115.50
2019-03-23T07:10:09.852Z,109.20
2019-03-23T07:11:09.826Z,72.90
2019-03-23T07:12:09.796Z,100.90
2019-03-23T07:13:09.769Z,96.60
2019-03-23T07:14:09.740Z,121.80
2019-03-23T07:15:19.536Z,98.50
2019-03-23T07:16:09.682Z,105.30
2019-03-23T07:17:09.656Z,107.70
2019-03-23T07:18:09.625Z,99.00
2019-03-23T07:19:09.595Z,113.70
2019-03-23T07:20:09.568Z,112.50
2019-03-23T07:21:09.538Z,96.70
2019-03-23T07:22:09.509Z,99.80
2019-03-23T07:23:09.480Z,110.20
2019-03-23T07:24:09.452Z,117.50
2019-03-23T07:25:09.424Z,110.10
2019-03-23T07:26:09.394Z,111.60
2019-03-23T07:27:09.366Z,122.60
2019-03-23T07:28:09.338Z,108.50
2019-03-23T07:29:09.310Z,119.50
2019-03-23T07:30:09.289Z,121.20
2019-03-23T07:31:09.252Z,120.00
2019-03-23T07:32:09.224Z,115.20
2019-03-23T07:33:09.194Z,112.00
2019-03-23T07:34:09.166Z,105.50
2019-03-23T07:35:09.137Z,107.50
2019-03-23T07:36:09.109Z,105.50
2019-03-23T07:37:09.080Z,109.70
2019-03-23T07:38:09.050Z,113.20
2019-03-23T07:39:09.025Z,107.10
2019-03-23T07:40:08.995Z,98.80
2019-03-23T07:41:08.965Z,106.60
2019-03-23T07:42:08.936Z,103.90
2019-03-23T07:43:08.909Z,106.30
2019-03-23T07:44:08.880Z,104.70
2019-03-23T07:45:08.854Z,112.90
2019-03-23T07:46:08.823Z,103.30
2019-03-23T07:47:08.796Z,89.60
2019-03-23T07:48:08.765Z,107.90
2019-03-23T07:49:08.737Z,112.90
2019-03-23T07:50:08.708Z,99.50
2019-03-23T07:51:08.681Z,101.00
2019-03-23T07:52:08.653Z,91.60
2019-03-23T07:53:08.623Z,94.30
2019-03-23T07:54:08.595Z,96.40
2019-03-23T07:55:08.566Z,105.90
2019-03-23T07:56:08.538Z,102.70
2019-03-23T07:57:08.509Z,88.90
2019-03-23T07:58:08.479Z,95.10
2019-03-23T07:59:08.452Z,85.30
2019-03-23T08:00:08.423Z,67.90
2019-03-23T08:01:08.395Z,83.40
2019-03-23T08:02:08.364Z,91.00
2019-03-23T08:03:08.336Z,84.80
2019-03-23T08:04:08.310Z,95.90
2019-03-23T08:05:08.279Z,92.30
2019-03-23T08:06:08.249Z,96.90
2019-03-23T08:07:08.222Z,94.70
2019-03-23T08:08:08.193Z,85.90
2019-03-23T08:09:08.167Z,79.70
2019-03-23T08:10:08.139Z,85.80
2019-03-23T08:11:08.107Z,95.70
2019-03-23T08:12:08.081Z,93.60
2019-03-23T08:13:08.054Z,74.20
2019-03-23T08:14:08.021Z,82.00
2019-03-23T08:15:07.995Z,68.50
2019-03-23T08:16:07.968Z,83.40
2019-03-23T08:17:07.938Z,88.10
2019-03-23T08:18:07.913Z,81.10
2019-03-23T08:19:07.881Z,80.80
2019-03-23T08:20:07.852Z,84.40
2019-03-23T08:21:07.823Z,86.80
2019-03-23T08:22:07.797Z,79.90
2019-03-23T08:23:07.766Z,81.70
2019-03-23T08:24:07.737Z,78.00
2019-03-23T08:25:07.707Z,76.50
2019-03-23T08:26:07.679Z,73.90
2019-03-23T08:27:07.650Z,71.70
2019-03-23T08:28:07.623Z,69.10
2019-03-23T08:29:07.593Z,70.20
2019-03-23T08:30:07.566Z,61.60
2019-03-23T08:31:07.538Z,52.60
2019-03-23T08:32:07.507Z,63.40
2019-03-23T08:33:07.480Z,66.00
2019-03-23T08:34:07.449Z,61.30
2019-03-23T08:35:07.421Z,53.00
2019-03-23T08:36:07.393Z,57.00
2019-03-23T08:37:07.365Z,58.30
2019-03-23T08:38:07.335Z,61.90
2019-03-23T08:39:07.315Z,64.70
2019-03-23T08:40:07.279Z,58.50
2019-03-23T08:41:07.252Z,66.20
2019-03-23T08:42:07.221Z,61.20
2019-03-23T08:43:07.244Z,57.80
2019-03-23T08:44:07.165Z,59.50
2019-03-23T08:45:07.137Z,64.10
2019-03-23T08:46:07.107Z,63.20
2019-03-23T08:47:07.080Z,62.40
2019-03-23T08:48:07.051Z,57.10
2019-03-23T08:49:07.023Z,53.20
2019-03-23T08:50:06.997Z,57.80
2019-03-23T08:51:06.964Z,57.80
2019-03-23T08:52:06.939Z,58.70
2019-03-23T08:53:06.909Z,58.70
2019-03-23T08:54:06.879Z,58.30
2019-03-23T08:55:06.851Z,50.90
2019-03-23T08:56:06.825Z,58.70
2019-03-23T08:57:06.796Z,60.30
2019-03-23T08:58:06.768Z,57.70
2019-03-23T08:59:06.740Z,57.70
2019-03-23T09:00:06.710Z,57.40
2019-03-23T09:01:06.682Z,56.60
2019-03-23T09:02:06.654Z,55.00
2019-03-23T09:03:06.626Z,58.30
2019-03-23T09:04:06.598Z,51.00
2019-03-23T09:05:06.573Z,53.90
2019-03-23T09:06:06.541Z,37.70
2019-03-23T09:07:06.512Z,53.60
2019-03-23T09:08:06.486Z,55.90
2019-03-23T09:09:06.467Z,51.30
2019-03-23T09:10:06.432Z,50.90
2019-03-23T09:11:06.402Z,53.90
2019-03-23T09:12:06.374Z,51.90
2019-03-23T09:13:06.354Z,51.10
2019-03-23T09:14:06.317Z,50.70
2019-03-23T09:15:06.290Z,51.80
2019-03-23T09:16:06.263Z,49.80
2019-03-23T09:17:06.236Z,45.90
2019-03-23T09:18:06.209Z,45.70
2019-03-23T09:19:06.179Z,46.50
2019-03-23T09:20:06.151Z,48.70
2019-03-23T09:21:06.164Z,50.00
2019-03-23T09:22:06.095Z,49.00
2019-03-23T09:23:06.076Z,50.00
2019-03-23T09:24:06.041Z,47.00
2019-03-23T09:25:06.014Z,53.90
2019-03-23T09:26:05.985Z,46.80
2019-03-23T09:27:05.958Z,50.70
2019-03-23T09:28:05.929Z,49.40
2019-03-23T09:29:05.903Z,46.10
2019-03-23T09:30:05.888Z,48.90
2019-03-23T09:31:05.849Z,50.20
2019-03-23T09:32:05.822Z,49.70
2019-03-23T09:33:05.825Z,52.40
2019-03-23T09:34:05.767Z,53.30
2019-03-23T09:35:05.737Z,52.20
2019-03-23T09:36:05.711Z,49.90
2019-03-23T09:37:05.686Z,51.50
2019-03-23T09:38:05.654Z,49.00
2019-03-23T09:39:05.628Z,49.40
2019-03-23T09:40:10.844Z,44.50
2019-03-23T09:41:05.573Z,44.70
2019-03-23T09:42:07.090Z,46.60
2019-03-23T09:43:05.519Z,42.90
2019-03-23T09:44:05.495Z,44.90
2019-03-23T09:45:05.465Z,40.30
2019-03-23T09:46:05.444Z,43.90
2019-03-23T09:47:05.410Z,38.30
2019-03-23T09:48:05.382Z,45.00
2019-03-23T09:49:05.357Z,45.10
2019-03-23T09:50:05.329Z,44.70
2019-03-23T09:51:05.302Z,45.40
2019-03-23T09:52:05.273Z,42.40
2019-03-23T09:53:05.248Z,44.30
2019-03-23T09:54:05.220Z,43.20
2019-03-23T09:55:05.195Z,44.20
2019-03-23T09:56:05.166Z,42.10
2019-03-23T09:57:05.139Z,39.20
2019-03-23T09:58:05.111Z,42.40
2019-03-23T09:59:05.086Z,40.40
2019-03-23T10:00:05.060Z,39.80
2019-03-23T10:01:05.031Z,40.00
2019-03-23T10:02:05.005Z,38.10
2019-03-23T10:03:04.980Z,36.60
2019-03-23T10:04:04.952Z,39.60
2019-03-23T10:05:04.924Z,38.70
2019-03-23T10:06:05.971Z,37.00
2019-03-23T10:07:04.871Z,37.70
2019-03-23T10:08:04.844Z,39.20
2019-03-23T10:09:04.819Z,40.10
2019-03-23T10:10:04.791Z,36.00
2019-03-23T10:11:04.764Z,39.20
2019-03-23T10:12:04.737Z,38.10
2019-03-23T10:13:04.710Z,38.20
2019-03-23T10:14:04.685Z,37.90
2019-03-23T10:15:04.662Z,37.90
2019-03-23T10:16:04.631Z,35.10
2019-03-23T10:17:04.606Z,37.10
2019-03-23T10:18:04.579Z,34.60
2019-03-23T10:19:04.553Z,32.50
2019-03-23T10:20:04.529Z,34.60
2019-03-23T10:21:04.502Z,32.50
2019-03-23T10:22:04.475Z,37.00
2019-03-23T10:23:04.447Z,34.80
2019-03-23T10:24:04.424Z,34.00
2019-03-23T10:25:04.399Z,37.10
2019-03-23T10:26:04.370Z,36.10
2019-03-23T10:27:04.345Z,35.60
2019-03-23T10:28:04.319Z,35.20
2019-03-23T10:29:04.293Z,36.50
2019-03-23T10:30:04.266Z,36.50
2019-03-23T10:31:04.242Z,35.20
2019-03-23T10:32:04.215Z,36.10
2019-03-23T10:33:04.191Z,35.70
2019-03-23T10:34:04.165Z,35.50
2019-03-23T10:35:04.140Z,35.80
2019-03-23T10:36:04.113Z,37.60
2019-03-23T10:37:04.092Z,39.00
2019-03-23T10:38:04.062Z,36.50
2019-03-23T10:39:04.037Z,39.10
2019-03-23T10:40:04.011Z,37.50
2019-03-23T10:41:03.987Z,40.30
2019-03-23T10:42:03.959Z,41.10
2019-03-23T10:43:03.934Z,41.10
2019-03-23T10:44:03.910Z,41.50
2019-03-23T10:45:03.883Z,40.90
2019-03-23T10:46:03.910Z,39.50
2019-03-23T10:47:03.832Z,41.60
2019-03-23T10:48:03.806Z,41.70
2019-03-23T10:49:03.783Z,43.40
2019-03-23T10:50:03.754Z,41.30
2019-03-23T10:51:03.730Z,42.20
2019-03-23T10:52:03.708Z,41.50
2019-03-23T10:53:03.682Z,40.90
2019-03-23T10:54:04.151Z,38.60
2019-03-23T10:55:03.629Z,42.00
2019-03-23T10:56:03.603Z,43.30
2019-03-23T10:57:03.579Z,44.30
2019-03-23T10:58:03.555Z,43.20
2019-03-23T10:59:03.526Z,44.70
2019-03-23T11:00:03.503Z,44.20
2019-03-23T11:01:03.477Z,44.70
2019-03-23T11:02:03.451Z,41.70
2019-03-23T11:03:03.429Z,40.60
2019-03-23T11:04:03.400Z,41.80
2019-03-23T11:05:03.376Z,44.00
2019-03-23T11:06:03.351Z,43.20
2019-03-23T11:07:03.326Z,39.00
2019-03-23T11:08:03.301Z,41.50
2019-03-23T11:09:03.277Z,41.10
2019-03-23T11:10:03.254Z,40.30
2019-03-23T11:11:03.229Z,41.90
2019-03-23T11:12:03.256Z,39.40
2019-03-23T11:13:03.178Z,35.30
2019-03-23T11:14:03.153Z,36.00
2019-03-23T11:15:03.127Z,38.10
2019-03-23T11:16:03.105Z,37.40
2019-03-23T11:17:03.078Z,37.90
2019-03-23T11:18:03.055Z,38.80
2019-03-23T11:19:09.578Z,37.80
2019-03-23T11:20:03.006Z,39.90
2019-03-23T11:21:02.983Z,39.10
2019-03-23T11:22:02.955Z,37.60
2019-03-23T11:23:02.933Z,37.00
2019-03-23T11:24:02.909Z,36.10
2019-03-23T11:25:02.885Z,36.10
2019-03-23T11:26:02.859Z,35.80
2019-03-23T11:27:02.835Z,38.70
2019-03-23T11:28:02.812Z,36.00
2019-03-23T11:29:02.794Z,37.70
2019-03-23T11:30:02.763Z,38.40
2019-03-23T11:31:02.738Z,39.70
2019-03-23T11:32:02.714Z,41.70
2019-03-23T11:33:02.708Z,41.40
2019-03-23T11:34:02.665Z,41.40
2019-03-23T11:35:02.718Z,41.70
2019-03-23T11:36:02.621Z,42.80
2019-03-23T11:37:02.593Z,45.10
2019-03-23T11:38:02.682Z,44.20
2019-03-23T11:39:02.547Z,43.60
2019-03-23T11:40:02.522Z,43.40
2019-03-23T11:41:02.499Z,43.70
2019-03-23T11:42:02.472Z,43.30
2019-03-23T11:43:02.452Z,44.00
2019-03-23T11:44:02.428Z,44.70
2019-03-23T11:45:02.410Z,41.20
2019-03-23T11:46:02.379Z,41.30
2019-03-23T11:47:02.354Z,37.30
2019-03-23T11:48:02.383Z,40.30
2019-03-23T11:49:02.308Z,36.90
2019-03-23T11:50:02.283Z,35.00
2019-03-23T11:51:02.259Z,35.70
2019-03-23T11:52:02.236Z,37.70
2019-03-23T11:53:02.214Z,39.10
2019-03-23T11:54:02.190Z,37.10
2019-03-23T11:55:02.168Z,37.20
2019-03-23T11:56:02.143Z,38.30
2019-03-23T11:57:02.134Z,36.20
2019-03-23T11:58:02.097Z,37.40
2019-03-23T11:59:02.073Z,38.90
2019-03-23T12:00:02.056Z,37.80
2019-03-23T12:01:02.029Z,38.40
2019-03-23T12:02:02.005Z,37.10
2019-03-23T12:03:01.985Z,37.20
2019-03-23T12:04:01.970Z,39.20
2019-03-23T12:05:01.957Z,37.10
2019-03-23T12:06:01.917Z,36.00
2019-03-23T12:07:01.896Z,38.20
2019-03-23T12:08:01.873Z,37.90
2019-03-23T12:09:01.853Z,37.60
2019-03-23T12:10:01.827Z,38.40
2019-03-23T12:11:03.084Z,39.10
2019-03-23T12:12:01.782Z,38.10
2019-03-23T12:13:01.761Z,37.30
2019-03-23T12:14:01.739Z,39.00
2019-03-23T12:15:01.720Z,38.90
2019-03-23T12:16:01.696Z,36.60
2019-03-23T12:17:01.673Z,38.70
2019-03-23T12:18:01.651Z,37.70
2019-03-23T12:19:01.630Z,37.80
2019-03-23T12:20:01.611Z,38.00
2019-03-23T12:21:01.587Z,39.70
2019-03-23T12:22:01.565Z,39.80
2019-03-23T12:23:01.545Z,37.60
2019-03-23T12:24:01.521Z,36.90
2019-03-23T12:25:01.511Z,37.00
2019-03-23T12:26:01.478Z,36.20
2019-03-23T12:27:01.457Z,36.70
2019-03-23T12:28:01.488Z,40.30
2019-03-23T12:29:01.413Z,40.20
2019-03-23T12:30:07.015Z,40.70
2019-03-23T12:31:01.372Z,40.20
2019-03-23T12:32:01.347Z,39.80
2019-03-23T12:33:01.324Z,42.40
2019-03-23T12:34:01.303Z,41.50
2019-03-23T12:35:01.289Z,40.60
2019-03-23T12:36:01.258Z,41.10
2019-03-23T12:37:02.487Z,40.10
2019-03-23T12:38:01.215Z,40.60
2019-03-23T12:39:01.192Z,35.10
2019-03-23T12:40:01.169Z,40.00
2019-03-23T12:41:10.154Z,39.90
2019-03-23T12:42:01.125Z,38.90
2019-03-23T12:43:01.103Z,37.20
2019-03-23T12:44:01.081Z,39.10
2019-03-23T12:45:01.061Z,39.80